createdAt,value
2017-12-01T00:01:33.151Z,9.20
2017-12-01T00:04:01.450Z,8.73
2017-12-01T00:06:29.679Z,7.10
2017-12-01T00:08:57.889Z,13.93
2017-12-01T00:11:26.206Z,20.10
2017-12-01T00:13:55.229Z,9.77
2017-12-01T00:16:23.508Z,10.87
2017-12-01T00:18:51.743Z,11.00
2017-12-01T00:21:20.006Z,14.07
2017-12-01T00:23:48.245Z,11.60
2017-12-01T00:26:16.529Z,8.27
2017-12-01T00:28:44.807Z,10.77
2017-12-01T00:31:13.156Z,8.57
2017-12-01T00:33:41.374Z,7.83
2017-12-01T00:36:09.603Z,8.53
2017-12-01T00:38:37.821Z,6.90
2017-12-01T00:41:06.131Z,8.77
2017-12-01T00:43:35.162Z,7.57
2017-12-01T00:46:03.382Z,6.80
2017-12-01T00:48:31.640Z,7.47
2017-12-01T00:50:59.860Z,5.47
2017-12-01T00:53:28.889Z,5.23
2017-12-01T00:55:57.150Z,4.60
2017-12-01T00:58:25.379Z,4.70
2017-12-01T01:00:53.698Z,5.03
2017-12-01T01:03:22.737Z,4.90
2017-12-01T01:05:50.997Z,5.77
2017-12-01T01:08:19.257Z,5.70
2017-12-01T01:10:47.518Z,10.70
2017-12-01T01:13:16.595Z,4.77
2017-12-01T01:15:44.894Z,5.77
2017-12-01T01:18:13.994Z,4.03
2017-12-01T01:20:42.235Z,11.57
2017-12-01T01:23:10.524Z,7.27
2017-12-01T01:25:39.553Z,7.90
2017-12-01T01:28:07.794Z,12.70
2017-12-01T01:30:36.792Z,15.87
2017-12-01T01:33:05.812Z,12.30
2017-12-01T01:35:34.063Z,9.70
2017-12-01T01:38:03.199Z,10.80
2017-12-01T01:40:31.475Z,8.30
2017-12-01T01:42:59.711Z,5.43
2017-12-01T01:45:28.769Z,7.93
2017-12-01T01:47:57.023Z,5.73
2017-12-01T01:50:25.367Z,4.87
2017-12-01T01:52:54.469Z,5.20
2017-12-01T01:55:23.507Z,5.53
2017-12-01T01:57:51.785Z,5.63
2017-12-01T02:00:20.059Z,4.97
2017-12-01T02:02:48.307Z,4.77
2017-12-01T02:05:16.585Z,7.60
2017-12-01T02:07:44.866Z,5.00
2017-12-01T02:10:13.123Z,5.00
2017-12-01T02:12:42.245Z,4.87
2017-12-01T02:15:10.542Z,4.87
2017-12-01T02:17:38.816Z,4.70
2017-12-01T02:20:07.222Z,7.03
2017-12-01T02:22:35.482Z,5.90
2017-12-01T02:25:03.780Z,4.20
2017-12-01T02:27:32.016Z,4.37
2017-12-01T02:30:00.498Z,5.20
2017-12-01T02:32:28.780Z,6.10
2017-12-01T02:34:57.037Z,5.77
2017-12-01T02:37:25.437Z,5.40
2017-12-01T02:39:53.797Z,7.10
2017-12-01T02:42:22.197Z,5.37
2017-12-01T02:44:50.504Z,7.07
2017-12-01T02:47:18.852Z,6.60
2017-12-01T02:49:49.015Z,3.93
2017-12-01T02:52:17.396Z,4.83
2017-12-01T02:54:50.174Z,4.83
2017-12-01T02:57:18.655Z,4.50
2017-12-01T02:59:46.976Z,3.77
2017-12-01T03:02:15.252Z,5.47
2017-12-01T03:04:43.571Z,4.17
2017-12-01T03:07:11.872Z,3.80
2017-12-01T03:09:40.931Z,4.20
2017-12-01T03:12:09.310Z,4.87
2017-12-01T03:14:37.630Z,3.20
2017-12-01T03:17:06.669Z,8.63
2017-12-01T03:19:35.008Z,9.10
2017-12-01T03:22:04.068Z,13.70
2017-12-01T03:24:32.388Z,7.90
2017-12-01T03:27:01.589Z,6.67
2017-12-01T03:29:30.573Z,6.23
2017-12-01T03:31:59.606Z,4.47
2017-12-01T03:34:27.879Z,7.63
2017-12-01T03:36:56.226Z,6.07
2017-12-01T03:39:25.284Z,8.27
2017-12-01T03:41:53.703Z,9.20
2017-12-01T03:44:22.823Z,13.10
2017-12-01T03:46:51.264Z,18.43
2017-12-01T03:49:19.603Z,11.60
2017-12-01T03:51:47.968Z,8.00
2017-12-01T03:54:16.382Z,6.33
2017-12-01T03:56:44.662Z,6.60
2017-12-01T03:59:13.004Z,5.90
2017-12-01T04:01:41.240Z,5.43
2017-12-01T04:04:10.339Z,7.47
2017-12-01T04:06:39.459Z,5.70
2017-12-01T04:09:07.759Z,4.97
2017-12-01T04:11:36.016Z,4.50
2017-12-01T04:14:04.337Z,5.60
2017-12-01T04:16:33.616Z,4.97
2017-12-01T04:19:01.958Z,4.77
2017-12-01T04:21:31.082Z,6.70
2017-12-01T04:23:59.415Z,7.10
2017-12-01T04:26:27.687Z,4.23
2017-12-01T04:28:55.964Z,3.63
2017-12-01T04:31:24.993Z,5.67
2017-12-01T04:33:53.292Z,4.67
2017-12-01T04:36:21.573Z,3.90
2017-12-01T04:38:50.112Z,4.30
2017-12-01T04:41:19.211Z,5.17
2017-12-01T04:43:48.214Z,4.17
2017-12-01T04:46:17.392Z,5.87
2017-12-01T04:48:46.430Z,4.13
2017-12-01T04:51:14.750Z,5.10
2017-12-01T04:53:43.053Z,5.57
2017-12-01T04:56:12.089Z,4.00
2017-12-01T04:58:40.352Z,4.40
2017-12-01T05:01:08.608Z,5.60
2017-12-01T05:03:36.847Z,6.13
2017-12-01T05:06:05.108Z,4.60
2017-12-01T05:08:34.826Z,5.53
2017-12-01T05:11:03.080Z,5.80
2017-12-01T05:13:31.405Z,5.40
2017-12-01T05:15:59.604Z,6.63
2017-12-01T05:18:27.883Z,5.10
2017-12-01T05:20:56.107Z,4.93
2017-12-01T05:23:24.350Z,4.30
2017-12-01T05:25:52.784Z,4.10
2017-12-01T05:28:21.923Z,5.33
2017-12-01T05:30:50.308Z,9.27
2017-12-01T05:33:18.636Z,5.37
2017-12-01T05:35:47.043Z,5.57
2017-12-01T05:38:15.408Z,5.50
2017-12-01T05:40:44.420Z,4.30
2017-12-01T07:05:10.346Z,6.23
2017-12-01T07:07:38.506Z,7.03
2017-12-01T07:10:06.686Z,6.90
2017-12-01T07:12:34.862Z,7.07
2017-12-01T07:15:03.041Z,6.53
2017-12-01T07:17:31.247Z,5.33
2017-12-01T07:19:59.441Z,7.13
2017-12-01T07:22:28.371Z,6.73
2017-12-01T07:24:56.559Z,8.50
2017-12-01T07:27:24.736Z,29.87
2017-12-01T07:29:52.904Z,29.90
2017-12-01T07:32:21.081Z,18.90
2017-12-01T07:34:49.282Z,15.40
2017-12-01T07:37:17.438Z,12.20
2017-12-01T07:39:45.631Z,8.90
2017-12-01T07:42:13.846Z,9.50
2017-12-01T07:44:44.933Z,11.53
2017-12-01T07:47:13.650Z,12.73
2017-12-01T07:49:41.831Z,9.80
2017-12-01T07:52:10.778Z,9.73
2017-12-01T07:54:39.014Z,12.97
2017-12-01T07:57:08.052Z,13.30
2017-12-01T07:59:36.247Z,9.57
2017-12-01T08:02:04.426Z,14.33
2017-12-01T08:04:32.675Z,13.20
2017-12-01T08:07:00.958Z,12.00
2017-12-01T08:09:29.143Z,8.47
2017-12-01T08:11:57.400Z,7.47
2017-12-01T08:14:25.646Z,8.73
2017-12-01T08:17:11.715Z,8.80
2017-12-01T08:19:39.942Z,7.10
2017-12-01T08:22:25.925Z,8.77
2017-12-01T08:25:11.902Z,15.37
2017-12-01T08:27:40.101Z,16.10
2017-12-01T08:30:08.366Z,12.73
2017-12-01T08:32:36.620Z,35.13
2017-12-01T08:35:05.567Z,49.83
2017-12-01T08:37:33.765Z,32.90
2017-12-01T08:40:01.938Z,28.20
2017-12-01T08:42:30.136Z,33.43
2017-12-01T08:44:59.113Z,21.37
2017-12-01T08:47:27.297Z,25.40
2017-12-01T08:49:56.278Z,23.13
2017-12-01T08:52:24.506Z,19.93
2017-12-01T08:54:52.696Z,20.00
2017-12-01T08:57:20.941Z,18.07
2017-12-01T08:59:49.117Z,10.30
2017-12-01T09:02:17.313Z,7.93
2017-12-01T09:04:45.497Z,9.40
2017-12-01T09:07:13.699Z,9.87
2017-12-01T09:09:41.901Z,8.73
2017-12-01T09:12:10.850Z,9.80
2017-12-01T09:14:39.005Z,6.97
2017-12-01T09:17:07.193Z,11.57
2017-12-01T09:19:35.419Z,7.23
2017-12-01T09:22:04.438Z,14.40
2017-12-01T09:24:32.758Z,10.80
2017-12-01T09:27:00.998Z,10.87
2017-12-01T09:29:29.229Z,16.17
2017-12-01T09:31:58.200Z,10.87
2017-12-01T09:34:26.442Z,8.93
2017-12-01T09:36:54.651Z,10.20
2017-12-01T09:39:22.827Z,9.73
2017-12-01T09:41:51.046Z,9.00
2017-12-01T09:44:19.320Z,12.17
2017-12-01T09:46:47.506Z,9.10
2017-12-01T09:49:15.718Z,9.80
2017-12-01T09:51:43.949Z,11.93
2017-12-01T09:54:12.161Z,9.33
2017-12-01T09:56:40.484Z,9.33
2017-12-01T09:59:09.485Z,11.00
2017-12-01T10:01:38.446Z,9.70
2017-12-01T10:04:06.627Z,8.63
2017-12-01T10:06:34.844Z,9.00
2017-12-01T10:09:03.060Z,11.03
2017-12-01T10:11:32.009Z,8.53
2017-12-01T10:14:00.274Z,9.13
2017-12-01T10:16:29.260Z,11.50
2017-12-01T10:18:58.198Z,12.13
2017-12-01T10:21:26.418Z,14.57
2017-12-01T10:23:54.639Z,16.30
2017-12-01T10:26:22.824Z,10.43
2017-12-01T10:28:51.006Z,13.13
2017-12-01T10:31:19.215Z,8.47
2017-12-01T10:33:47.407Z,9.50
2017-12-01T10:36:16.399Z,12.10
2017-12-01T10:38:45.375Z,9.60
2017-12-01T10:41:13.574Z,9.17
2017-12-01T10:43:42.576Z,8.37
2017-12-01T10:46:10.815Z,9.53
2017-12-01T10:48:39.088Z,8.23
2017-12-01T10:51:07.301Z,10.00
2017-12-01T10:53:35.511Z,6.13
2017-12-01T10:56:04.051Z,7.60
2017-12-01T10:58:33.006Z,6.10
2017-12-01T11:01:01.189Z,8.93
2017-12-01T11:03:30.231Z,7.33
2017-12-01T11:05:58.450Z,9.40
2017-12-01T11:08:26.651Z,8.20
2017-12-01T11:10:55.602Z,14.13
2017-12-01T11:13:23.806Z,8.43
2017-12-01T11:15:52.027Z,7.80
2017-12-01T11:18:20.269Z,7.43
2017-12-01T11:20:49.225Z,8.50
2017-12-01T11:23:17.397Z,8.50
2017-12-01T11:25:45.600Z,12.10
2017-12-01T11:28:14.606Z,13.30
2017-12-01T11:30:43.554Z,12.87
2017-12-01T11:33:11.764Z,11.63
2017-12-01T11:35:40.745Z,13.57
2017-12-01T11:38:08.942Z,15.13
2017-12-01T11:40:37.903Z,13.33
2017-12-01T11:43:06.186Z,14.93
2017-12-01T11:45:34.413Z,15.67
2017-12-01T11:48:02.620Z,12.93
2017-12-01T11:50:30.800Z,14.50
2017-12-01T11:52:59.018Z,14.70
2017-12-01T11:55:28.050Z,13.30
2017-12-01T11:57:56.300Z,14.50
2017-12-01T12:00:25.326Z,18.77
2017-12-01T12:02:53.508Z,15.03
2017-12-01T12:05:21.707Z,14.60
2017-12-01T12:07:49.896Z,16.37
2017-12-01T12:10:18.092Z,16.90
2017-12-01T12:12:47.035Z,14.67
2017-12-01T12:15:15.202Z,18.47
2017-12-01T12:17:43.442Z,17.33
2017-12-01T12:20:11.628Z,16.03
2017-12-01T12:22:39.908Z,13.73
2017-12-01T12:25:08.145Z,15.50
2017-12-01T12:27:36.336Z,13.20
2017-12-01T12:30:05.284Z,12.83
2017-12-01T12:32:34.243Z,13.60
2017-12-01T12:35:02.480Z,14.10
2017-12-01T12:37:30.653Z,12.93
2017-12-01T12:39:58.844Z,15.27
2017-12-01T12:42:27.804Z,15.67
2017-12-01T12:44:56.068Z,14.50
2017-12-01T12:47:24.307Z,14.37
2017-12-01T12:49:52.540Z,13.77
2017-12-01T12:52:20.807Z,14.50
2017-12-01T12:54:49.014Z,14.70
2017-12-01T12:57:17.987Z,14.70
2017-12-01T12:59:46.187Z,18.13
2017-12-01T13:02:15.144Z,16.33
2017-12-01T13:04:43.424Z,16.27
2017-12-01T13:07:11.804Z,15.73
2017-12-01T13:09:40.202Z,16.77
2017-12-01T13:12:09.283Z,16.20
2017-12-01T13:14:37.504Z,19.03
2017-12-01T13:17:05.715Z,15.37
2017-12-01T13:19:33.941Z,16.37
2017-12-01T13:22:03.000Z,15.50
2017-12-01T13:24:31.289Z,23.20
2017-12-01T13:26:59.499Z,17.30
2017-12-01T13:29:27.708Z,15.40
2017-12-01T13:31:55.919Z,18.67
2017-12-01T13:34:24.117Z,20.37
2017-12-01T13:36:53.115Z,17.67
2017-12-01T13:39:21.377Z,16.80
2017-12-01T13:41:50.384Z,13.90
2017-12-01T13:44:18.634Z,13.77
2017-12-01T13:46:46.854Z,13.83
2017-12-01T13:49:15.094Z,13.70
2017-12-01T13:51:44.047Z,23.50
2017-12-01T13:54:12.315Z,16.97
2017-12-01T13:56:40.632Z,15.17
2017-12-01T13:59:08.903Z,20.57
2017-12-01T14:01:37.134Z,15.37
2017-12-01T14:04:05.358Z,26.03
2017-12-01T14:06:33.583Z,18.80
2017-12-01T14:09:01.810Z,20.37
2017-12-01T14:11:30.072Z,20.50
2017-12-01T14:13:58.367Z,20.93
2017-12-01T14:16:26.608Z,16.13
2017-12-01T14:18:54.907Z,16.57
2017-12-01T14:21:23.120Z,23.40
2017-12-01T14:23:52.065Z,19.60
2017-12-01T14:26:20.261Z,22.77
2017-12-01T14:28:48.465Z,23.90
2017-12-01T14:31:16.685Z,26.13
2017-12-01T14:33:44.925Z,25.00
2017-12-01T14:36:13.703Z,21.20
2017-12-01T14:38:41.930Z,17.33
2017-12-01T14:41:10.150Z,16.90
2017-12-01T14:43:39.163Z,22.87
2017-12-01T14:46:07.362Z,36.27
2017-12-01T14:48:35.603Z,22.27
2017-12-01T14:51:03.881Z,22.30
2017-12-01T14:53:32.105Z,15.87
2017-12-01T14:56:00.442Z,21.67
2017-12-01T14:58:28.707Z,19.80
2017-12-01T15:00:57.160Z,24.47
2017-12-01T15:03:25.357Z,15.07
2017-12-01T15:05:54.358Z,20.13
2017-12-01T15:08:22.556Z,19.07
2017-12-01T15:10:50.936Z,31.50
2017-12-01T15:13:19.350Z,24.17
2017-12-01T15:15:47.636Z,36.50
2017-12-01T15:18:15.859Z,22.80
2017-12-01T15:20:44.139Z,14.57
2017-12-01T15:23:12.377Z,14.77
2017-12-01T15:25:41.398Z,14.83
2017-12-01T15:28:10.394Z,17.43
2017-12-01T15:30:38.586Z,15.17
2017-12-01T15:33:06.922Z,23.17
2017-12-01T15:35:35.947Z,29.87
2017-12-01T15:38:04.295Z,28.90
2017-12-01T15:40:33.327Z,67.63
2017-12-01T15:43:01.596Z,65.90
2017-12-01T15:45:29.862Z,59.87
2017-12-01T15:47:58.312Z,45.73
2017-12-01T15:50:26.649Z,33.77
2017-12-01T15:52:55.030Z,61.17
2017-12-01T15:55:23.291Z,33.03
2017-12-01T15:57:51.709Z,26.87
2017-12-01T16:00:20.440Z,82.93
2017-12-01T16:02:48.741Z,68.70
2017-12-01T16:05:17.027Z,46.27
2017-12-01T16:07:45.320Z,61.70
2017-12-01T16:10:13.669Z,73.37
2017-12-01T16:12:41.949Z,41.93
2017-12-01T16:15:10.266Z,42.20
2017-12-01T16:17:38.575Z,38.03
2017-12-01T16:20:07.645Z,41.20
2017-12-01T16:22:35.949Z,37.63
2017-12-01T16:25:05.045Z,26.63
2017-12-01T17:21:06.975Z,31.00
2017-12-01T17:23:36.002Z,27.13
2017-12-01T17:26:04.315Z,56.70
2017-12-01T17:28:32.612Z,59.60
2017-12-01T17:31:00.876Z,35.90
2017-12-01T17:33:29.110Z,41.50
2017-12-01T17:35:57.427Z,41.03
2017-12-01T17:38:25.698Z,47.87
2017-12-01T17:40:53.934Z,55.40
2017-12-01T17:43:22.331Z,51.93
2017-12-01T17:45:50.605Z,73.23
2017-12-01T17:48:19.050Z,65.03
2017-12-01T17:50:48.290Z,60.00
2017-12-01T17:53:16.608Z,47.60
2017-12-01T17:55:44.849Z,41.47
2017-12-01T17:58:13.109Z,41.37
2017-12-01T18:00:41.468Z,33.53
2017-12-01T18:03:09.749Z,35.83
2017-12-01T18:05:37.982Z,32.80
2017-12-01T18:08:06.287Z,26.73
2017-12-01T18:10:35.283Z,81.57
2017-12-01T18:13:04.312Z,94.53
2017-12-01T18:15:32.545Z,80.23
2017-12-01T18:18:01.713Z,64.00
2017-12-01T18:20:29.985Z,58.00
2017-12-01T18:22:58.240Z,35.63
2017-12-01T18:25:27.415Z,24.30
2017-12-01T18:27:55.799Z,26.73
2017-12-01T18:30:24.018Z,26.20
2017-12-01T18:32:52.217Z,41.33
2017-12-01T18:35:20.502Z,42.30
2017-12-01T18:37:49.546Z,33.03
2017-12-01T18:40:17.736Z,28.77
2017-12-01T18:42:46.902Z,29.63
2017-12-01T18:45:15.100Z,23.40
2017-12-01T18:47:43.374Z,24.00
2017-12-01T18:50:11.595Z,40.60
2017-12-01T18:52:40.578Z,73.33
2017-12-01T18:55:08.853Z,53.50
2017-12-01T18:57:37.075Z,42.10
2017-12-01T19:00:05.337Z,60.87
2017-12-01T19:02:33.527Z,81.30
2017-12-01T19:05:02.933Z,158.10
2017-12-01T19:07:31.172Z,92.67
2017-12-01T19:10:00.214Z,72.97
2017-12-01T19:12:28.557Z,47.87
2017-12-01T19:14:56.800Z,37.50
2017-12-01T19:17:25.072Z,28.00
2017-12-01T19:19:53.394Z,25.20
2017-12-01T19:22:21.688Z,26.53
2017-12-01T19:24:49.953Z,32.50
2017-12-01T19:27:18.271Z,31.97
2017-12-01T19:29:46.506Z,32.43
2017-12-01T19:32:14.887Z,31.40
2017-12-01T19:34:43.137Z,25.80
2017-12-01T19:37:12.159Z,27.30
2017-12-01T19:39:40.552Z,26.17
2017-12-01T19:42:08.831Z,28.90
2017-12-01T19:44:37.083Z,29.83
2017-12-01T19:47:05.379Z,28.67
2017-12-01T19:49:33.608Z,31.33
2017-12-01T19:52:01.809Z,30.53
2017-12-01T19:54:30.047Z,25.70
2017-12-01T19:56:58.367Z,27.40
2017-12-01T19:59:26.592Z,21.60
2017-12-01T20:01:54.835Z,24.37
2017-12-01T20:04:23.043Z,22.53
2017-12-01T20:06:51.240Z,20.00
2017-12-01T20:09:19.492Z,20.43
2017-12-01T20:11:47.716Z,22.13
2017-12-01T20:14:16.733Z,21.50
2017-12-01T20:16:45.235Z,21.30
2017-12-01T20:19:13.443Z,21.00
2017-12-01T20:21:41.758Z,23.87
2017-12-01T20:24:09.982Z,20.93
2017-12-01T20:26:38.304Z,21.87
2017-12-01T20:29:06.497Z,25.70
2017-12-01T20:31:34.704Z,23.27
2017-12-01T20:34:03.007Z,25.20
2017-12-01T20:36:31.185Z,25.13
2017-12-01T20:39:00.260Z,25.53
2017-12-01T20:41:28.494Z,24.70
2017-12-01T20:43:56.753Z,23.93
2017-12-01T20:46:25.000Z,23.43
2017-12-01T20:48:53.180Z,25.83
2017-12-01T20:51:22.178Z,25.30
2017-12-01T20:53:51.201Z,29.07
2017-12-01T20:56:19.457Z,36.90
2017-12-01T20:58:48.454Z,33.00
2017-12-01T21:01:17.457Z,50.20
2017-12-01T21:03:45.695Z,51.00
2017-12-01T21:06:13.938Z,44.70
2017-12-01T21:08:42.248Z,44.33
2017-12-01T21:11:10.499Z,39.77
2017-12-01T21:13:38.731Z,45.03
2017-12-01T21:16:06.932Z,44.87
2017-12-01T21:18:35.119Z,39.87
2017-12-01T21:21:03.337Z,32.67
2017-12-01T21:23:31.597Z,24.07
2017-12-01T21:25:59.873Z,27.57
2017-12-01T21:28:28.111Z,24.57
2017-12-01T21:30:56.330Z,27.10
2017-12-01T21:33:24.570Z,26.00
2017-12-01T21:35:52.842Z,21.53
2017-12-01T21:38:21.071Z,21.60
2017-12-01T21:40:49.403Z,24.73
2017-12-01T21:43:17.632Z,27.10
2017-12-01T21:45:46.627Z,21.17
2017-12-01T21:48:15.648Z,23.47
2017-12-01T21:50:43.850Z,21.63
2017-12-01T21:53:12.109Z,22.70
2017-12-01T21:55:40.351Z,16.67
2017-12-01T21:58:08.595Z,21.43
2017-12-01T22:00:36.821Z,22.67
2017-12-01T22:03:05.105Z,23.20
2017-12-01T22:05:33.385Z,21.20
2017-12-01T22:08:01.604Z,20.03
2017-12-01T22:10:29.808Z,20.77
2017-12-01T22:12:58.804Z,22.10
2017-12-01T22:15:27.763Z,23.47
2017-12-01T22:17:56.041Z,19.40
2017-12-01T22:20:24.334Z,18.10
2017-12-01T22:22:52.576Z,21.07
2017-12-01T22:25:20.794Z,22.53
2017-12-01T22:27:49.937Z,17.73
2017-12-01T22:30:18.153Z,23.30
2017-12-01T22:32:46.462Z,22.00
2017-12-01T22:35:14.680Z,22.90
2017-12-01T22:37:43.010Z,24.60
2017-12-01T22:40:11.998Z,22.50
2017-12-01T22:42:41.030Z,27.07
2017-12-01T22:45:09.215Z,23.53
2017-12-01T22:47:37.475Z,24.30
2017-12-01T22:50:05.693Z,26.30
2017-12-01T22:52:33.928Z,31.27
2017-12-01T22:55:02.204Z,24.33
2017-12-01T22:57:30.406Z,37.13
2017-12-01T22:59:58.634Z,28.10
2017-12-01T23:02:27.696Z,24.63
2017-12-01T23:04:55.908Z,23.80
2017-12-01T23:07:24.142Z,28.23
2017-12-01T23:09:52.342Z,21.43
2017-12-01T23:12:21.308Z,22.17
2017-12-01T23:14:49.491Z,29.67
2017-12-01T23:17:17.721Z,24.27
2017-12-01T23:19:45.951Z,23.30
2017-12-01T23:22:14.186Z,23.47
2017-12-01T23:24:42.411Z,20.30
2017-12-01T23:27:10.669Z,19.97
2017-12-01T23:29:38.901Z,21.93
2017-12-01T23:32:07.125Z,21.20
2017-12-01T23:34:35.443Z,22.30
2017-12-01T23:37:03.667Z,23.03
2017-12-01T23:39:31.948Z,24.43
2017-12-01T23:42:00.227Z,21.60
2017-12-01T23:44:28.442Z,21.40
2017-12-01T23:46:56.666Z,25.00
2017-12-01T23:49:24.923Z,23.53
2017-12-01T23:51:53.127Z,22.43
2017-12-01T23:54:21.385Z,24.57
2017-12-01T23:56:49.603Z,22.87
2017-12-01T23:59:18.605Z,27.57
